Time;durP1;ratioP1;P1;durP2;ratioP2;P2;SDS_P1;SDS_P2;PMS_P1;PMS_P2;Temp;Humidity;BMP_temperature;BMP_pressure;BME280_temperature;BME280_humidity;BME280_pressure;Samples;Min_cycle;Max_cycle;Signal;HPM_P1;HPM_P2
2022/05/20 00:00:05;;;;;;;27.70;24.70;;;18.80;99.90;;;;;;4991925;28;20588;-79
2022/05/20 00:02:33;;;;;;;28.08;25.17;;;18.70;99.90;;;;;;5001251;28;20215;-80
2022/05/20 00:05:01;;;;;;;27.58;24.23;;;18.60;99.90;;;;;;5004437;28;20691;-80
2022/05/20 00:07:28;;;;;;;27.38;24.40;;;18.50;99.90;;;;;;5004786;28;20202;-80
2022/05/20 00:09:57;;;;;;;27.35;24.45;;;18.40;99.90;;;;;;4991215;28;20662;-80
2022/05/20 00:12:25;;;;;;;26.10;23.38;;;18.40;99.90;;;;;;5001147;28;20208;-79
2022/05/20 00:14:52;;;;;;;31.52;24.95;;;18.40;99.90;;;;;;5011643;28;20238;-80
2022/05/20 00:17:20;;;;;;;30.27;23.75;;;18.50;99.90;;;;;;5027847;28;20200;-79
2022/05/20 00:19:47;;;;;;;30.55;25.92;;;18.60;99.90;;;;;;4991942;28;20207;-80
2022/05/20 00:22:15;;;;;;;25.92;23.17;;;18.40;99.90;;;;;;5001722;28;20567;-80
2022/05/20 00:27:25;;;;;;;29.45;24.27;;;18.50;99.90;;;;;;5022460;28;20208;-80
2022/05/20 00:29:53;;;;;;;25.63;22.90;;;18.50;99.90;;;;;;4992811;28;20551;-80
2022/05/20 00:32:20;;;;;;;26.75;24.00;;;18.50;99.90;;;;;;4994669;28;20204;-79
2022/05/20 00:34:48;;;;;;;29.95;26.60;;;18.50;99.90;;;;;;5000999;28;20223;-78
2022/05/20 00:37:15;;;;;;;31.77;27.15;;;18.40;99.90;;;;;;4994457;28;20196;-78
2022/05/20 00:39:43;;;;;;;34.60;27.08;;;18.30;99.90;;;;;;4997118;28;20209;-77
2022/05/20 00:42:13;;;;;;;29.60;24.63;;;18.40;99.90;;;;;;4999479;28;20200;-80
2022/05/20 00:44:42;;;;;;;28.88;25.67;;;18.30;99.90;;;;;;4988779;28;20235;-80
2022/05/20 00:47:11;;;;;;;30.75;26.73;;;18.40;99.90;;;;;;4990850;28;20199;-79
2022/05/20 00:49:40;;;;;;;30.17;25.90;;;18.40;99.90;;;;;;4990996;28;20210;-79
2022/05/20 00:52:12;;;;;;;27.67;24.70;;;18.40;99.90;;;;;;4995859;28;20201;-80
2022/05/20 00:54:43;;;;;;;29.50;25.92;;;18.30;99.90;;;;;;4998540;28;20235;-80
2022/05/20 00:57:13;;;;;;;31.73;27.85;;;18.20;99.90;;;;;;5025805;28;20207;-80
2022/05/20 00:59:50;;;;;;;33.13;28.45;;;18.00;99.90;;;;;;4988484;28;20204;-80
2022/05/20 01:02:21;;;;;;;33.25;28.02;;;17.80;99.90;;;;;;4990840;28;20219;-80
2022/05/20 01:04:50;;;;;;;32.60;26.20;;;17.70;99.90;;;;;;4997338;28;20231;-80
2022/05/20 01:07:19;;;;;;;30.63;27.38;;;17.70;99.90;;;;;;5029115;28;20209;-80
2022/05/20 01:09:47;;;;;;;30.90;26.45;;;17.70;99.90;;;;;;4991727;28;20219;-80
2022/05/20 01:12:14;;;;;;;32.45;28.20;;;17.60;99.90;;;;;;4998279;28;20436;-80
2022/05/20 01:14:43;;;;;;;33.17;26.35;;;17.40;99.90;;;;;;4990747;28;20243;-80
2022/05/20 01:17:11;;;;;;;32.10;27.63;;;17.20;99.90;;;;;;4995875;28;20209;-80
2022/05/20 01:19:41;;;;;;;33.53;26.50;;;17.40;99.90;;;;;;5009483;28;20215;-80
2022/05/20 01:22:11;;;;;;;31.25;27.88;;;17.20;99.90;;;;;;4994711;28;20216;-80
2022/05/20 01:24:40;;;;;;;28.85;25.55;;;17.30;99.90;;;;;;4992015;28;20225;-80
2022/05/20 01:27:08;;;;;;;32.67;27.73;;;17.20;99.90;;;;;;4997263;28;20276;-78
2022/05/20 01:29:35;;;;;;;33.58;27.88;;;17.10;99.90;;;;;;4993209;28;20199;-80
2022/05/20 01:32:03;;;;;;;31.63;25.65;;;17.10;99.90;;;;;;4991239;28;20199;-80
2022/05/20 01:34:31;;;;;;;27.23;24.23;;;17.10;99.90;;;;;;4993059;28;20244;-78
2022/05/20 01:36:58;;;;;;;29.95;25.75;;;17.20;99.90;;;;;;5016688;28;20212;-80
2022/05/20 01:39:26;;;;;;;30.58;25.75;;;17.20;99.90;;;;;;4996517;28;20203;-80
2022/05/20 01:42:03;;;;;;;33.58;26.98;;;17.40;99.90;;;;;;4993208;28;20220;-80
2022/05/20 01:44:36;;;;;;;32.35;26.33;;;17.60;99.90;;;;;;5004618;28;20226;-80
2022/05/20 01:47:09;;;;;;;29.35;25.60;;;17.60;99.90;;;;;;4996735;28;20210;-80
2022/05/20 01:49:42;;;;;;;32.05;26.70;;;17.50;99.90;;;;;;4996157;28;20221;-78
2022/05/20 01:52:19;;;;;;;32.42;26.73;;;17.30;99.90;;;;;;4988015;28;20199;-80
2022/05/20 01:54:55;;;;;;;32.88;25.55;;;17.20;99.90;;;;;;4996160;28;20220;-78
2022/05/20 01:57:30;;;;;;;28.05;24.95;;;17.30;99.90;;;;;;5023378;28;20200;-78
2022/05/20 02:00:03;;;;;;;28.92;25.83;;;17.40;99.90;;;;;;5004362;28;20201;-79
2022/05/20 02:02:39;;;;;;;29.42;26.23;;;17.30;99.90;;;;;;5000713;28;20705;-80
2022/05/20 02:05:18;;;;;;;31.05;26.60;;;17.30;99.90;;;;;;5020262;28;20283;-80
2022/05/20 02:07:50;;;;;;;28.85;25.50;;;17.30;99.90;;;;;;4999383;28;20200;-80
2022/05/20 02:10:27;;;;;;;28.88;25.63;;;17.30;99.90;;;;;;5013923;28;20211;-79
2022/05/20 02:13:01;;;;;;;31.83;27.30;;;17.30;99.90;;;;;;4995434;28;20202;-80
2022/05/20 02:15:35;;;;;;;30.67;27.30;;;17.10;99.90;;;;;;4995920;28;20220;-80
2022/05/20 02:18:06;;;;;;;29.48;26.35;;;17.00;99.90;;;;;;4991160;28;20207;-80
2022/05/20 02:20:41;;;;;;;30.58;27.27;;;16.60;99.90;;;;;;5022897;28;20215;-79
2022/05/20 02:23:14;;;;;;;32.85;28.00;;;16.60;99.90;;;;;;4997538;28;20576;-80
2022/05/20 02:25:47;;;;;;;33.50;29.15;;;16.40;99.90;;;;;;4997879;28;20223;-79
2022/05/20 02:28:20;;;;;;;32.50;27.65;;;16.40;99.90;;;;;;4993162;28;20573;-80
2022/05/20 02:30:50;;;;;;;30.83;27.45;;;16.60;99.90;;;;;;5013907;28;20203;-77
2022/05/20 02:33:22;;;;;;;35.58;28.50;;;16.50;99.90;;;;;;4991577;28;20200;-80
2022/05/20 02:35:50;;;;;;;34.78;29.67;;;16.30;99.90;;;;;;5024783;28;20213;-80
2022/05/20 02:38:20;;;;;;;31.33;27.63;;;16.20;99.90;;;;;;4992347;28;20204;-80
2022/05/20 02:40:50;;;;;;;34.20;28.67;;;16.20;99.90;;;;;;4994039;28;20219;-80
2022/05/20 02:43:19;;;;;;;33.15;29.27;;;16.30;99.90;;;;;;5029570;28;20209;-78
2022/05/20 02:45:48;;;;;;;34.60;28.15;;;16.30;99.90;;;;;;4997004;28;20209;-80
2022/05/20 02:48:18;;;;;;;36.35;28.27;;;16.00;99.90;;;;;;4994145;28;20201;-76
2022/05/20 02:50:46;;;;;;;38.60;30.40;;;15.90;99.90;;;;;;5031551;28;20211;-80
2022/05/20 02:53:14;;;;;;;33.50;28.58;;;15.80;99.90;;;;;;4997712;28;20208;-80
2022/05/20 02:55:42;;;;;;;33.70;29.38;;;15.70;99.90;;;;;;4998596;28;20228;-79
2022/05/20 03:04:09;;;;;;;37.30;29.48;;;15.70;99.90;;;;;;4999002;28;20205;-77
2022/05/20 03:06:28;;;;;;;31.17;26.05;;;16.10;99.90;;;;;;5023087;28;20201;-76
2022/05/20 03:08:55;;;;;;;29.08;23.75;;;16.50;99.90;;;;;;4988229;28;20200;-76
2022/05/20 03:11:23;;;;;;;31.92;26.75;;;17.10;99.90;;;;;;4988498;28;20196;-77
2022/05/20 03:13:50;;;;;;;33.17;27.08;;;17.00;99.90;;;;;;4991715;28;20232;-77
2022/05/20 03:16:19;;;;;;;22.50;18.65;;;16.90;99.90;;;;;;4984157;28;20204;-76
2022/05/20 03:18:47;;;;;;;34.55;28.02;;;17.20;99.90;;;;;;4989807;28;20199;-77
2022/05/20 03:21:14;;;;;;;37.42;30.25;;;17.00;99.90;;;;;;5019554;28;20790;-77
2022/05/20 03:23:41;;;;;;;35.15;28.55;;;16.20;99.90;;;;;;4991491;28;20243;-77
2022/05/20 03:26:09;;;;;;;34.65;29.15;;;16.10;99.90;;;;;;4987746;28;20200;-77
2022/05/20 03:28:36;;;;;;;36.60;30.25;;;16.30;99.90;;;;;;4986632;28;20215;-75
2022/05/20 03:31:06;;;;;;;35.97;28.30;;;16.00;99.90;;;;;;4988834;28;20208;-77
2022/05/20 03:33:35;;;;;;;36.78;30.20;;;16.10;99.90;;;;;;5023710;28;20207;-77
2022/05/20 03:36:03;;;;;;;35.60;27.63;;;15.90;99.90;;;;;;5018246;28;20200;-77
2022/05/20 03:38:30;;;;;;;38.00;28.90;;;15.90;99.90;;;;;;4988813;28;20215;-77
2022/05/20 03:40:58;;;;;;;35.00;27.08;;;15.80;99.90;;;;;;5006236;28;20200;-77
2022/05/20 03:43:26;;;;;;;37.75;30.67;;;15.70;99.90;;;;;;4987204;28;20231;-77
2022/05/20 03:45:55;;;;;;;34.45;29.38;;;15.80;99.90;;;;;;4986682;28;20209;-77
2022/05/20 03:48:23;;;;;;;32.10;27.85;;;15.90;99.90;;;;;;4983799;28;20208;-77
2022/05/20 03:50:52;;;;;;;31.05;25.73;;;16.30;99.90;;;;;;4990904;28;20212;-77
2022/05/20 03:53:19;;;;;;;32.20;26.27;;;16.20;99.90;;;;;;4988289;28;20181;-77
2022/05/20 03:55:47;;;;;;;32.47;25.70;;;16.20;99.90;;;;;;4990574;28;20204;-77
2022/05/20 03:58:14;;;;;;;29.60;25.20;;;16.20;99.90;;;;;;4990398;28;20216;-76
2022/05/20 04:03:23;;;;;;;26.38;22.67;;;16.10;99.90;;;;;;4963264;28;20589;-77
2022/05/20 04:05:53;;;;;;;29.45;23.90;;;16.40;99.90;;;;;;5015307;28;20220;-76
2022/05/20 04:08:21;;;;;;;29.88;25.27;;;16.60;99.90;;;;;;4989875;28;20200;-76
2022/05/20 04:10:48;;;;;;;29.17;25.17;;;16.60;99.90;;;;;;4987324;28;20211;-77
2022/05/20 04:13:16;;;;;;;27.98;24.50;;;16.60;99.90;;;;;;5017835;28;20204;-77
2022/05/20 04:15:43;;;;;;;29.88;26.15;;;16.40;99.90;;;;;;4986825;28;20212;-77
2022/05/20 04:18:23;;;;;;;25.88;23.17;;;16.40;99.90;;;;;;4993896;28;20196;-77
2022/05/20 04:20:52;;;;;;;28.45;23.67;;;16.50;99.90;;;;;;4991614;28;20200;-77
2022/05/20 04:23:22;;;;;;;25.85;22.67;;;16.60;99.90;;;;;;4991989;28;20630;-77
2022/05/20 04:25:51;;;;;;;27.90;23.98;;;17.00;99.90;;;;;;4981312;28;20208;-77
2022/05/20 04:28:18;;;;;;;26.42;22.05;;;17.00;99.90;;;;;;5020230;28;20227;-77
2022/05/20 04:33:59;;;;;;;26.60;23.33;;;17.20;99.90;;;;;;5002929;28;20581;-78
2022/05/20 04:36:29;;;;;;;29.67;25.20;;;17.20;99.90;;;;;;5005668;28;20208;-80
2022/05/20 04:38:57;;;;;;;29.00;25.52;;;17.20;99.90;;;;;;4997401;28;20214;-77
2022/05/20 04:47:19;;;;;;;25.67;21.20;;;17.30;99.90;;;;;;5029135;28;20196;-79
2022/05/20 04:50:03;;;;;;;24.00;21.35;;;17.80;99.90;;;;;;5016308;28;20215;-79
2022/05/20 04:52:56;;;;;;;30.15;25.85;;;18.20;99.90;;;;;;4996910;28;20192;-78
2022/05/20 04:55:24;;;;;;;25.73;22.88;;;18.10;99.90;;;;;;5028352;28;20223;-80
2022/05/20 05:01:21;;;;;;;23.70;20.35;;;18.30;99.90;;;;;;4992998;28;20219;-79
2022/05/20 05:03:49;;;;;;;24.70;20.33;;;18.40;99.90;;;;;;4998206;28;20223;-79
2022/05/20 05:06:16;;;;;;;30.17;26.88;;;18.40;99.90;;;;;;5028043;28;20201;-79
2022/05/20 05:09:28;;;;;;;30.88;27.50;;;18.40;99.90;;;;;;5000641;28;20219;-78
2022/05/20 05:12:26;;;;;;;22.08;19.33;;;18.50;99.90;;;;;;4997907;28;20210;-80
2022/05/20 05:14:55;;;;;;;26.27;22.60;;;18.90;99.90;;;;;;4992736;28;20232;-80
2022/05/20 05:20:07;;;;;;;35.03;31.00;;;19.10;99.90;;;;;;5008417;28;20208;-81
2022/05/20 05:22:35;;;;;;;26.52;23.55;;;19.10;99.90;;;;;;4996271;28;20233;-80
2022/05/20 05:25:02;;;;;;;26.23;23.38;;;19.20;99.90;;;;;;5002365;28;20227;-80
2022/05/20 05:27:30;;;;;;;28.73;25.58;;;19.30;99.90;;;;;;4995201;28;20589;-80
2022/05/20 05:29:59;;;;;;;28.90;25.73;;;19.20;99.90;;;;;;4996067;28;20211;-79
2022/05/20 05:32:26;;;;;;;31.42;26.05;;;19.20;99.90;;;;;;4995194;28;20211;-79
2022/05/20 05:34:55;;;;;;;31.35;26.70;;;19.30;99.90;;;;;;4997770;28;20235;-80
2022/05/20 05:37:23;;;;;;;30.45;27.20;;;19.30;99.90;;;;;;4985809;28;20197;-80
2022/05/20 05:39:52;;;;;;;30.83;25.83;;;19.30;99.90;;;;;;5010622;28;20196;-80
2022/05/20 05:42:22;;;;;;;27.58;24.58;;;19.30;99.90;;;;;;4995721;28;20200;-81
2022/05/20 05:44:50;;;;;;;30.92;25.77;;;19.40;99.90;;;;;;4991788;28;20224;-80
2022/05/20 05:47:18;;;;;;;29.60;24.33;;;19.50;99.90;;;;;;4991863;28;20207;-80
2022/05/20 05:49:56;;;;;;;28.02;22.85;;;19.20;99.90;;;;;;5004715;28;20200;-79
2022/05/20 05:52:26;;;;;;;26.05;22.92;;;19.40;99.90;;;;;;4986882;28;20677;-79
2022/05/20 05:54:54;;;;;;;31.30;23.80;;;19.60;99.90;;;;;;5020292;28;20224;-79
2022/05/20 05:57:21;;;;;;;31.20;24.42;;;19.50;99.90;;;;;;4992847;28;20204;-79
2022/05/20 05:59:49;;;;;;;26.92;21.98;;;19.50;99.90;;;;;;4990880;28;20195;-79
2022/05/20 06:02:18;;;;;;;30.15;23.25;;;19.50;99.90;;;;;;5010650;28;20208;-79
2022/05/20 06:04:46;;;;;;;37.13;26.95;;;19.60;99.90;;;;;;4994227;28;20224;-79
2022/05/20 06:07:14;;;;;;;25.60;21.45;;;19.10;99.90;;;;;;4992304;28;20267;-79
2022/05/20 06:09:42;;;;;;;22.48;19.38;;;19.20;99.90;;;;;;4991052;28;20200;-80
2022/05/20 06:12:11;;;;;;;27.67;22.40;;;19.30;99.90;;;;;;4996305;28;20192;-79
2022/05/20 06:14:39;;;;;;;23.30;20.73;;;19.50;99.90;;;;;;4992264;28;20243;-79
2022/05/20 06:17:06;;;;;;;25.65;21.33;;;19.40;99.90;;;;;;4988984;28;20200;-79
2022/05/20 06:19:35;;;;;;;26.13;21.13;;;19.50;99.90;;;;;;4994775;28;20204;-79
2022/05/20 06:22:03;;;;;;;29.27;23.95;;;19.60;99.90;;;;;;4987030;28;20188;-79
2022/05/20 06:24:31;;;;;;;23.60;20.88;;;19.40;99.90;;;;;;5021642;28;20229;-79
2022/05/20 06:26:58;;;;;;;22.50;19.42;;;19.20;99.90;;;;;;4999691;28;20200;-80
2022/05/20 06:29:26;;;;;;;29.13;26.00;;;19.20;99.90;;;;;;4999379;28;20207;-79
2022/05/20 06:31:53;;;;;;;28.08;23.75;;;18.90;99.90;;;;;;4994778;28;20673;-79
2022/05/20 06:34:21;;;;;;;28.77;25.52;;;18.90;99.90;;;;;;5017144;28;20591;-79
2022/05/20 06:39:52;;;;;;;25.48;21.05;;;19.50;99.90;;;;;;4997182;28;20196;-80
2022/05/20 06:42:20;;;;;;;27.88;23.05;;;19.60;99.90;;;;;;4992965;28;20200;-79
2022/05/20 06:44:51;;;;;;;32.22;26.52;;;19.70;99.90;;;;;;5012719;28;20725;-79
2022/05/20 06:47:19;;;;;;;32.33;27.45;;;19.50;99.90;;;;;;4996896;28;20203;-79
2022/05/20 06:49:46;;;;;;;30.85;25.77;;;19.50;99.90;;;;;;4995019;28;20673;-79
2022/05/20 06:52:15;;;;;;;29.60;26.38;;;19.30;99.90;;;;;;5000601;28;20205;-79
2022/05/20 06:54:43;;;;;;;30.98;26.92;;;19.10;99.90;;;;;;5030298;28;20213;-79
2022/05/20 06:57:10;;;;;;;25.73;22.63;;;19.00;99.90;;;;;;4997818;28;20208;-79
2022/05/20 06:59:38;;;;;;;23.90;20.52;;;19.50;99.90;;;;;;5027355;28;20201;-78
2022/05/20 07:02:05;;;;;;;27.88;23.30;;;19.30;99.90;;;;;;4996918;28;20204;-79
2022/05/20 07:04:33;;;;;;;21.73;17.83;;;19.30;99.90;;;;;;4983979;28;20252;-78
2022/05/20 07:07:09;;;;;;;25.05;19.95;;;19.50;99.90;;;;;;4997769;28;20200;-80
2022/05/20 07:09:38;;;;;;;21.75;18.15;;;19.80;99.90;;;;;;4992855;28;20559;-80
2022/05/20 07:12:07;;;;;;;25.42;21.70;;;20.00;99.90;;;;;;4990531;28;20548;-80
2022/05/20 07:14:38;;;;;;;26.15;21.80;;;19.40;99.90;;;;;;4997333;28;20220;-82
2022/05/20 07:17:08;;;;;;;22.63;19.85;;;19.30;99.90;;;;;;5011020;28;20201;-80
2022/05/20 07:19:40;;;;;;;31.23;23.17;;;19.60;99.90;;;;;;5010468;28;20204;-81
2022/05/20 07:22:23;;;;;;;28.33;21.13;;;19.90;99.90;;;;;;5021211;28;20201;-80
2022/05/20 07:24:56;;;;;;;22.77;19.20;;;20.00;99.90;;;;;;4995518;28;20706;-80
2022/05/20 07:27:26;;;;;;;31.15;24.98;;;20.10;99.90;;;;;;4989942;28;20200;-80
2022/05/20 07:29:53;;;;;;;27.92;24.30;;;19.60;99.90;;;;;;4982309;28;20201;-79
2022/05/20 07:32:23;;;;;;;28.05;23.00;;;19.50;99.90;;;;;;4987158;28;20201;-80
2022/05/20 07:34:50;;;;;;;29.85;24.30;;;19.80;99.90;;;;;;4989294;28;20212;-79
2022/05/20 07:37:18;;;;;;;27.00;24.05;;;19.60;99.90;;;;;;4991700;28;20208;-80
2022/05/20 07:39:45;;;;;;;27.83;24.80;;;19.60;99.90;;;;;;5025621;28;20659;-80
2022/05/20 07:42:14;;;;;;;30.23;26.48;;;19.50;99.90;;;;;;4988774;28;20207;-80
2022/05/20 07:44:42;;;;;;;24.35;21.73;;;19.60;99.90;;;;;;4995721;28;20216;-80
2022/05/20 07:47:10;;;;;;;31.25;27.92;;;19.50;99.90;;;;;;4986018;28;20200;-80
2022/05/20 07:49:37;;;;;;;30.58;24.70;;;19.70;99.90;;;;;;4989589;28;20203;-80
2022/05/20 07:52:08;;;;;;;30.55;27.27;;;19.60;99.90;;;;;;4988732;28;20204;-80
2022/05/20 07:54:40;;;;;;;34.38;30.60;;;19.80;99.90;;;;;;4992295;28;20220;-80
2022/05/20 07:57:13;;;;;;;36.78;31.67;;;19.80;99.90;;;;;;5001404;28;20289;-81
2022/05/20 07:59:46;;;;;;;30.25;26.80;;;19.80;99.90;;;;;;5008489;28;20197;-80
2022/05/20 08:02:16;;;;;;;30.23;26.20;;;19.90;99.90;;;;;;5004239;28;20207;-80
2022/05/20 08:05:00;;;;;;;26.75;23.88;;;19.80;99.90;;;;;;5025384;28;20224;-81
2022/05/20 08:07:31;;;;;;;24.58;19.73;;;19.60;99.90;;;;;;4987271;28;20196;-80
2022/05/20 08:09:59;;;;;;;21.00;18.67;;;19.70;99.90;;;;;;4995214;28;20201;-81
2022/05/20 08:12:27;;;;;;;20.92;18.20;;;19.70;99.90;;;;;;4982836;28;20200;-80
2022/05/20 08:14:55;;;;;;;20.52;18.33;;;19.90;99.90;;;;;;5007963;28;20231;-79
2022/05/20 08:17:27;;;;;;;22.40;19.58;;;20.00;99.90;;;;;;4989085;28;20208;-81
2022/05/20 08:19:55;;;;;;;21.08;17.48;;;19.70;99.90;;;;;;5010200;28;20208;-80
2022/05/20 08:22:24;;;;;;;20.42;17.58;;;19.70;99.90;;;;;;4986328;28;20216;-80
2022/05/20 08:24:53;;;;;;;20.50;16.65;;;19.80;99.90;;;;;;4992990;28;20220;-81
2022/05/20 08:27:21;;;;;;;18.75;16.55;;;19.90;99.90;;;;;;4990978;28;20204;-80
2022/05/20 08:29:48;;;;;;;21.92;19.65;;;19.90;99.90;;;;;;4991607;28;20215;-81
2022/05/20 08:32:17;;;;;;;22.95;20.38;;;20.20;99.90;;;;;;5023289;28;20211;-81
2022/05/20 08:34:45;;;;;;;25.10;21.02;;;20.10;99.90;;;;;;5025469;28;20216;-80
2022/05/20 08:37:13;;;;;;;23.52;21.02;;;19.90;99.90;;;;;;4989416;28;20210;-81
2022/05/20 08:39:41;;;;;;;26.95;23.17;;;20.10;99.90;;;;;;4995744;28;20203;-81
2022/05/20 08:42:14;;;;;;;26.67;22.48;;;20.00;99.90;;;;;;4991007;28;20669;-81
2022/05/20 08:44:43;;;;;;;23.50;21.00;;;20.30;99.90;;;;;;4993183;28;20232;-80
2022/05/20 08:47:28;;;;;;;25.52;22.85;;;20.30;99.90;;;;;;4989338;28;20200;-80
2022/05/20 08:49:59;;;;;;;27.98;22.35;;;20.40;99.90;;;;;;4994890;28;20208;-81
2022/05/20 08:52:27;;;;;;;28.48;23.65;;;20.50;99.90;;;;;;4994984;28;20200;-80
2022/05/20 08:54:55;;;;;;;28.38;23.80;;;20.30;99.90;;;;;;4988353;28;20216;-81
2022/05/20 08:57:25;;;;;;;25.25;22.17;;;20.50;99.90;;;;;;4990933;28;20200;-81
2022/05/20 08:59:53;;;;;;;21.75;19.42;;;20.30;99.90;;;;;;4991139;28;20219;-81
2022/05/20 09:02:22;;;;;;;29.45;22.20;;;20.50;99.90;;;;;;4993476;28;20200;-80
2022/05/20 09:04:51;;;;;;;26.27;21.92;;;20.50;99.90;;;;;;4993682;28;20686;-81
2022/05/20 09:07:20;;;;;;;25.25;21.00;;;20.60;99.90;;;;;;5020250;28;20205;-78
2022/05/20 09:09:51;;;;;;;25.70;22.17;;;20.60;99.90;;;;;;4999830;28;20196;-80
2022/05/20 09:12:31;;;;;;;25.42;21.65;;;20.70;99.90;;;;;;4981806;28;20205;-79
2022/05/20 09:17:51;;;;;;;23.42;20.10;;;20.90;99.90;;;;;;5015478;28;20575;-78
2022/05/20 09:20:21;;;;;;;25.48;22.02;;;20.90;99.90;;;;;;4980458;28;20196;-77
2022/05/20 09:26:16;;;;;;;25.27;21.73;;;20.70;99.90;;;;;;5004871;28;20289;-79
2022/05/20 09:28:48;;;;;;;25.85;21.23;;;20.90;99.90;;;;;;4989361;28;20208;-78
2022/05/20 09:31:22;;;;;;;28.75;21.58;;;20.90;99.90;;;;;;4989841;28;20650;-79
2022/05/20 09:33:55;;;;;;;26.20;21.73;;;20.90;99.90;;;;;;5016974;28;20228;-79
2022/05/20 09:36:38;;;;;;;24.75;22.05;;;21.10;99.90;;;;;;5016717;28;20216;-80
2022/05/20 09:39:11;;;;;;;26.92;21.17;;;21.20;99.90;;;;;;4985756;28;20227;-78
2022/05/20 09:41:55;;;;;;;25.20;22.30;;;21.40;99.90;;;;;;5018156;28;20201;-79
2022/05/20 09:44:24;;;;;;;26.67;21.70;;;21.30;99.90;;;;;;5019035;28;20594;-79
2022/05/20 09:46:56;;;;;;;29.60;22.65;;;21.50;99.90;;;;;;4990007;28;20207;-78
2022/05/20 09:49:35;;;;;;;29.42;23.85;;;21.60;99.90;;;;;;4991309;28;20204;-78
2022/05/20 09:52:15;;;;;;;28.05;23.63;;;21.30;99.90;;;;;;5016241;28;20196;-78
2022/05/20 09:54:48;;;;;;;26.13;22.35;;;20.90;99.90;;;;;;4990705;28;20216;-79
2022/05/20 09:57:23;;;;;;;27.23;22.92;;;21.40;99.90;;;;;;4986276;28;20200;-79
2022/05/20 09:59:57;;;;;;;30.42;22.17;;;21.30;99.90;;;;;;4998543;28;20204;-81
2022/05/20 10:02:32;;;;;;;25.95;22.95;;;21.60;99.90;;;;;;5003201;28;20197;-81
2022/05/20 10:05:08;;;;;;;26.67;21.95;;;21.60;99.90;;;;;;5026851;28;20227;-81
2022/05/20 10:08:02;;;;;;;26.90;23.08;;;21.60;99.90;;;;;;5027563;28;20208;-81
2022/05/20 10:10:54;;;;;;;28.02;23.40;;;21.70;99.90;;;;;;5008245;28;20201;-80
2022/05/20 10:13:29;;;;;;;24.83;21.65;;;21.70;99.90;;;;;;4993230;28;20196;-81
2022/05/20 10:16:09;;;;;;;27.63;23.10;;;21.90;99.90;;;;;;5001919;28;20196;-81
2022/05/20 10:18:48;;;;;;;28.05;23.25;;;22.00;99.90;;;;;;5021238;28;20200;-82
2022/05/20 10:21:26;;;;;;;26.38;22.70;;;21.90;99.90;;;;;;5005736;28;20189;-80
2022/05/20 10:24:02;;;;;;;27.00;22.92;;;22.10;99.90;;;;;;4994593;28;20242;-81
2022/05/20 10:26:37;;;;;;;25.90;20.95;;;22.30;99.90;;;;;;4997543;28;20223;-81
2022/05/20 10:34:46;;;;;;;29.00;25.15;;;22.30;99.90;;;;;;5018492;28;20213;-80
2022/05/20 10:37:35;;;;;;;29.92;23.60;;;21.90;99.90;;;;;;4992717;28;20204;-80
2022/05/20 10:40:37;;;;;;;26.85;22.40;;;22.30;99.90;;;;;;4997805;28;20219;-78
2022/05/20 10:49:33;;;;;;;27.98;23.23;;;22.50;99.90;;;;;;5022396;28;20204;-77
2022/05/20 10:52:14;;;;;;;28.52;24.45;;;22.60;99.90;;;;;;4984405;28;20227;-77
2022/05/20 10:55:10;;;;;;;29.50;23.23;;;22.70;99.90;;;;;;4989852;28;20873;-78
2022/05/20 10:58:01;;;;;;;26.23;22.40;;;22.90;99.90;;;;;;5001164;28;20561;-78
2022/05/20 11:00:38;;;;;;;28.83;24.05;;;23.20;99.90;;;;;;4985955;28;20203;-78
2022/05/20 11:03:38;;;;;;;24.92;22.23;;;23.00;99.90;;;;;;5015714;28;20222;-78
2022/05/20 11:06:26;;;;;;;26.77;22.10;;;23.10;99.90;;;;;;4935066;28;20231;-78
2022/05/20 11:09:19;;;;;;;29.70;22.75;;;23.20;99.90;;;;;;5005347;28;20208;-78
2022/05/20 11:12:34;;;;;;;31.80;24.70;;;23.20;99.90;;;;;;4988269;28;20204;-78
2022/05/20 11:15:16;;;;;;;26.17;22.33;;;23.60;99.90;;;;;;5010026;28;20223;-78
2022/05/20 11:18:06;;;;;;;29.95;25.15;;;23.90;99.90;;;;;;4991839;28;20203;-77
2022/05/20 11:20:59;;;;;;;30.98;25.08;;;23.80;99.90;;;;;;4996605;28;20192;-78
2022/05/20 11:23:51;;;;;;;25.52;22.75;;;23.40;99.90;;;;;;5030574;28;20207;-78
2022/05/20 11:26:41;;;;;;;30.52;24.30;;;23.70;99.90;;;;;;4975650;28;20842;-79
2022/05/20 11:30:02;;;;;;;28.23;23.70;;;23.90;99.90;;;;;;5008687;28;20205;-79
2022/05/20 11:32:59;;;;;;;30.08;23.70;;;23.90;99.90;;;;;;4998559;28;20200;-79
2022/05/20 11:35:53;;;;;;;28.70;22.70;;;24.10;99.90;;;;;;4994693;28;20204;-78
2022/05/20 11:38:55;;;;;;;26.42;22.50;;;24.40;99.90;;;;;;5026481;28;20663;-78
2022/05/20 11:41:30;;;;;;;27.40;23.23;;;24.50;99.90;;;;;;5006243;28;20208;-78
2022/05/20 11:44:23;;;;;;;27.00;22.92;;;24.80;99.90;;;;;;5002156;28;20225;-79
2022/05/20 11:47:09;;;;;;;29.27;25.00;;;24.70;99.90;;;;;;5032441;28;20217;-81
2022/05/20 11:49:48;;;;;;;27.73;24.42;;;24.10;99.90;;;;;;5027373;28;20215;-79
2022/05/20 11:52:40;;;;;;;31.70;25.52;;;24.20;99.90;;;;;;5014940;28;20202;-78
2022/05/20 11:55:13;;;;;;;30.80;26.40;;;24.50;99.90;;;;;;5035178;28;20223;-78
2022/05/20 11:57:54;;;;;;;26.98;22.98;;;24.40;99.90;;;;;;4995829;28;20200;-78
2022/05/20 12:00:43;;;;;;;30.08;24.27;;;24.70;99.90;;;;;;4995632;28;20674;-77
2022/05/20 12:03:15;;;;;;;26.98;23.55;;;24.50;99.90;;;;;;5003300;28;20200;-77
2022/05/20 12:05:48;;;;;;;26.10;23.38;;;24.80;99.90;;;;;;5024531;28;20246;-77
2022/05/20 12:08:47;;;;;;;25.60;22.55;;;24.40;99.90;;;;;;4992624;28;20706;-77
2022/05/20 12:11:23;;;;;;;27.42;24.30;;;24.60;99.90;;;;;;4999211;28;20211;-76
2022/05/20 12:14:08;;;;;;;30.88;25.15;;;24.70;99.90;;;;;;4983583;28;20216;-77
2022/05/20 12:16:52;;;;;;;28.42;24.08;;;24.80;99.90;;;;;;4990921;28;20582;-76
2022/05/20 12:25:32;;;;;;;30.10;23.30;;;25.10;99.90;;;;;;5002695;28;20236;-77
2022/05/20 12:28:06;;;;;;;25.13;22.48;;;25.00;99.90;;;;;;4990530;28;20184;-77
2022/05/20 12:30:42;;;;;;;26.40;23.38;;;25.00;99.90;;;;;;5013548;28;20197;-77
2022/05/20 12:33:25;;;;;;;26.92;23.92;;;24.70;99.90;;;;;;5007635;28;20211;-77
2022/05/20 12:36:21;;;;;;;26.15;23.50;;;24.50;99.90;;;;;;4990726;28;20655;-77
2022/05/20 12:38:51;;;;;;;27.05;22.27;;;24.50;99.90;;;;;;4960968;28;20205;-77
2022/05/20 12:41:34;;;;;;;25.92;23.23;;;24.70;99.90;;;;;;4985767;28;20290;-78
2022/05/20 12:44:31;;;;;;;27.45;22.35;;;24.50;99.90;;;;;;4991094;28;20208;-80
2022/05/20 12:47:17;;;;;;;29.88;26.65;;;24.30;99.90;;;;;;5017375;28;20709;-77
2022/05/20 12:49:55;;;;;;;28.35;25.35;;;24.10;99.90;;;;;;4985933;28;20267;-77
2022/05/20 12:52:27;;;;;;;28.45;25.48;;;24.10;99.90;;;;;;4984436;28;20568;-78
2022/05/20 12:55:00;;;;;;;31.73;28.15;;;24.10;99.90;;;;;;4991011;28;20225;-77
2022/05/20 12:57:30;;;;;;;29.00;25.83;;;23.90;99.90;;;;;;4988990;28;20211;-77
2022/05/20 13:00:01;;;;;;;29.58;26.40;;;23.80;99.90;;;;;;5012646;28;20211;-78
2022/05/20 13:02:33;;;;;;;29.55;26.42;;;23.70;99.90;;;;;;4989096;28;20209;-77
2022/05/20 13:05:07;;;;;;;28.75;25.38;;;23.60;99.90;;;;;;4986097;28;20227;-77
2022/05/20 13:07:49;;;;;;;30.15;26.98;;;23.50;99.90;;;;;;5017095;28;20220;-77
2022/05/20 13:10:29;;;;;;;33.13;27.92;;;23.30;99.90;;;;;;4988258;28;20212;-78
2022/05/20 13:13:03;;;;;;;33.35;27.40;;;23.20;99.90;;;;;;4992140;28;20204;-78
2022/05/20 13:15:47;;;;;;;32.88;28.05;;;23.00;99.90;;;;;;4984175;28;20220;-77
2022/05/20 13:18:24;;;;;;;28.98;25.85;;;23.00;99.90;;;;;;4982031;28;20199;-78
2022/05/20 13:21:15;;;;;;;34.22;29.45;;;23.00;99.90;;;;;;5019801;28;20211;-78
2022/05/20 13:23:51;;;;;;;35.95;31.67;;;22.70;99.90;;;;;;4987594;28;20694;-77
2022/05/20 13:26:29;;;;;;;35.65;30.27;;;22.60;99.90;;;;;;4987982;28;20216;-78
2022/05/20 13:29:03;;;;;;;35.97;31.02;;;22.60;99.90;;;;;;5001070;28;20561;-77
2022/05/20 13:31:36;;;;;;;36.45;29.95;;;22.70;99.90;;;;;;4984674;28;20207;-77
2022/05/20 13:34:17;;;;;;;35.85;30.83;;;22.60;99.90;;;;;;4996118;28;20217;-78
2022/05/20 13:39:38;;;;;;;42.70;34.22;;;22.50;99.90;;;;;;5016610;28;20208;-77
2022/05/20 13:42:23;;;;;;;41.38;36.53;;;22.10;99.90;;;;;;4989733;28;20193;-77
2022/05/20 13:44:55;;;;;;;42.50;36.05;;;21.80;99.90;;;;;;5023416;28;21013;-78
2022/05/20 13:50:16;;;;;;;53.63;42.33;;;21.50;99.90;;;;;;5014176;28;20196;-77
2022/05/20 13:52:51;;;;;;;50.13;42.33;;;21.30;99.90;;;;;;5021413;28;20674;-77
2022/05/20 13:55:23;;;;;;;51.53;38.85;;;21.40;99.90;;;;;;4983175;28;20227;-78
2022/05/20 13:57:58;;;;;;;28.20;23.48;;;21.40;99.90;;;;;;4987516;28;20201;-77